College Station, TX (77840)

7:37 AM CDT on August 04, 2015 (GMT -0500)
K3PSW Emerald Forest | | Change Station
CLOSE
Current Station
Personal Weather Station
Location: College Station, TX
Elevation: 297 ft
Nearby Weather Stations

Elev 297 ft 30.60 °N, 96.28 °W | Updated 22 seconds ago

Clear
Clear
74.8 °F
Feels Like 74 °F
N
0.0
Wind Variable Wind from SSW
Gusts 0.0 mph

Today
High -- | Low -- °F
--% Chance of Precip.
Yesterday
High -- | Low -- °F
Precip. -- in
6:44 AM 8:17 PM
Waning Gibbous, 78% visible
Pressure 29.94 in
Visibility 9.0 miles
Clouds Clear
Heat Index 74 °F
Dew Point 72 °F
Humidity 91%
Rainfall 0.00 in
Snow Depth Not available.
UV 0 out of 12
Pollen 3.30 out of 12
Air Quality Not available.
Flu Activity Not available.
METAR KCLL 041153Z AUTO 12003KT 9SM CLR 24/22 A2996 RMK AO2 SLP138 T02390222 10272 20239 53009

More Conditions Fewer Conditions

Pressure 29.94 in
Visibility 9.0 miles
Clouds Clear
Heat Index 74 °F
Dew Point 72 °F
Humidity 91%
Rainfall 0.00 in
Snow Depth Not available.
UV 0 out of 12
Pollen 3.30 out of 12
Air Quality Not available.
Flu Activity Not available.
METAR KCLL 041153Z AUTO 12003KT 9SM CLR 24/22 A2996 RMK AO2 SLP138 T02390222 10272 20239 53009

More Conditions Fewer Conditions

10-Day Weather Forecast

×

Almanac

Astronomy

Aug. 04, 2015 Rise Set
Actual Time
Civil Twilight
Nautical Twilight
Astronomical Twilight
Moon
Length of Visible Light
Length of Day
Tomorrow will be .
, % of the Moon is Illuminated

Today's Extremes

State Highs State Lows

Community

WunderPhotos

Upload Photos

1,843,911 photos uploaded!

WunderBlogs® & News

Nearby

Air Quality

  Air Quality AQ Index Pollutant
Not available.

Snow Depth

Station Depth Elevation

Earthquake Activity

City Distance Mag. Time & Date
Minimum magnitude displayed is 2.5.

Coastal Water Temperatures

Place Temperature

Stations

Nearby Weather Stations

Station Location Temp. Windchill Dew Point Humidity Wind Precip. Elev Updated Type